sensor_id;sensor_type;location;lat;lon;timestamp;P1;durP1;ratioP1;P2;durP2;ratioP2
49123;SDS011;48506;48.202;16.274;2023-06-19T00:00:20;9.65;;;7.70;;
49123;SDS011;48506;48.202;16.274;2023-06-19T00:02:46;9.25;;;7.38;;
49123;SDS011;48506;48.202;16.274;2023-06-19T00:05:12;9.38;;;8.10;;
49123;SDS011;48506;48.202;16.274;2023-06-19T00:07:39;17.98;;;8.75;;
49123;SDS011;48506;48.202;16.274;2023-06-19T00:10:05;11.40;;;8.55;;
49123;SDS011;48506;48.202;16.274;2023-06-19T00:12:31;9.00;;;7.50;;
49123;SDS011;48506;48.202;16.274;2023-06-19T00:14:57;9.43;;;8.30;;
49123;SDS011;48506;48.202;16.274;2023-06-19T00:17:23;12.25;;;8.80;;
49123;SDS011;48506;48.202;16.274;2023-06-19T00:19:52;9.70;;;7.72;;
49123;SDS011;48506;48.202;16.274;2023-06-19T00:22:18;9.00;;;8.10;;
49123;SDS011;48506;48.202;16.274;2023-06-19T00:24:45;11.00;;;8.07;;
49123;SDS011;48506;48.202;16.274;2023-06-19T00:27:11;9.20;;;7.43;;
49123;SDS011;48506;48.202;16.274;2023-06-19T00:29:37;10.57;;;8.63;;
49123;SDS011;48506;48.202;16.274;2023-06-19T00:32:03;11.63;;;8.35;;
49123;SDS011;48506;48.202;16.274;2023-06-19T00:34:29;7.90;;;7.10;;
49123;SDS011;48506;48.202;16.274;2023-06-19T00:36:58;11.25;;;8.85;;
49123;SDS011;48506;48.202;16.274;2023-06-19T00:39:24;12.35;;;9.15;;
49123;SDS011;48506;48.202;16.274;2023-06-19T00:41:51;9.27;;;7.82;;
49123;SDS011;48506;48.202;16.274;2023-06-19T00:44:18;9.25;;;7.68;;
49123;SDS011;48506;48.202;16.274;2023-06-19T00:46:44;10.77;;;7.93;;
49123;SDS011;48506;48.202;16.274;2023-06-19T00:49:11;9.10;;;7.82;;
49123;SDS011;48506;48.202;16.274;2023-06-19T00:51:37;9.77;;;7.65;;
49123;SDS011;48506;48.202;16.274;2023-06-19T00:54:03;8.55;;;7.68;;
49123;SDS011;48506;48.202;16.274;2023-06-19T00:56:31;9.57;;;8.52;;
49123;SDS011;48506;48.202;16.274;2023-06-19T00:58:59;9.48;;;8.13;;
49123;SDS011;48506;48.202;16.274;2023-06-19T01:04:58;9.43;;;8.30;;
49123;SDS011;48506;48.202;16.274;2023-06-19T01:07:29;10.02;;;7.28;;
49123;SDS011;48506;48.202;16.274;2023-06-19T01:10:06;14.43;;;8.50;;
49123;SDS011;48506;48.202;16.274;2023-06-19T01:12:42;11.65;;;8.07;;
49123;SDS011;48506;48.202;16.274;2023-06-19T01:17:42;9.85;;;8.52;;
49123;SDS011;48506;48.202;16.274;2023-06-19T01:20:11;9.50;;;7.93;;
49123;SDS011;48506;48.202;16.274;2023-06-19T01:22:38;9.63;;;7.85;;
49123;SDS011;48506;48.202;16.274;2023-06-19T01:25:04;10.27;;;7.80;;
49123;SDS011;48506;48.202;16.274;2023-06-19T01:27:31;9.57;;;8.18;;
49123;SDS011;48506;48.202;16.274;2023-06-19T01:29:58;12.35;;;9.52;;
49123;SDS011;48506;48.202;16.274;2023-06-19T02:02:09;9.82;;;8.43;;
49123;SDS011;48506;48.202;16.274;2023-06-19T02:04:36;12.68;;;9.02;;
49123;SDS011;48506;48.202;16.274;2023-06-19T02:07:02;10.35;;;7.72;;
49123;SDS011;48506;48.202;16.274;2023-06-19T02:09:28;10.68;;;8.57;;
49123;SDS011;48506;48.202;16.274;2023-06-19T02:11:54;10.38;;;8.23;;
49123;SDS011;48506;48.202;16.274;2023-06-19T02:14:19;10.63;;;8.02;;
49123;SDS011;48506;48.202;16.274;2023-06-19T02:16:45;11.27;;;9.00;;
49123;SDS011;48506;48.202;16.274;2023-06-19T02:19:11;11.82;;;8.70;;
49123;SDS011;48506;48.202;16.274;2023-06-19T02:21:37;19.42;;;9.05;;
49123;SDS011;48506;48.202;16.274;2023-06-19T02:24:04;11.40;;;8.75;;
49123;SDS011;48506;48.202;16.274;2023-06-19T02:26:30;10.90;;;8.40;;
49123;SDS011;48506;48.202;16.274;2023-06-19T02:28:57;13.02;;;8.68;;
49123;SDS011;48506;48.202;16.274;2023-06-19T02:31:23;12.05;;;8.60;;
49123;SDS011;48506;48.202;16.274;2023-06-19T02:33:50;14.13;;;9.40;;
49123;SDS011;48506;48.202;16.274;2023-06-19T02:36:18;10.40;;;8.90;;
49123;SDS011;48506;48.202;16.274;2023-06-19T02:38:47;12.80;;;9.65;;
49123;SDS011;48506;48.202;16.274;2023-06-19T02:41:14;10.30;;;8.10;;
49123;SDS011;48506;48.202;16.274;2023-06-19T02:43:41;11.57;;;9.23;;
49123;SDS011;48506;48.202;16.274;2023-06-19T02:46:08;12.20;;;8.68;;
49123;SDS011;48506;48.202;16.274;2023-06-19T02:48:34;10.60;;;8.75;;
49123;SDS011;48506;48.202;16.274;2023-06-19T02:51:00;11.15;;;9.13;;
49123;SDS011;48506;48.202;16.274;2023-06-19T02:53:26;11.15;;;8.60;;
49123;SDS011;48506;48.202;16.274;2023-06-19T02:55:52;11.48;;;9.05;;
49123;SDS011;48506;48.202;16.274;2023-06-19T02:58:18;9.75;;;8.70;;
49123;SDS011;48506;48.202;16.274;2023-06-19T03:00:45;10.18;;;8.25;;
49123;SDS011;48506;48.202;16.274;2023-06-19T03:03:11;12.27;;;8.60;;
49123;SDS011;48506;48.202;16.274;2023-06-19T03:05:37;12.35;;;9.10;;
49123;SDS011;48506;48.202;16.274;2023-06-19T03:08:04;10.27;;;8.40;;
49123;SDS011;48506;48.202;16.274;2023-06-19T03:10:30;18.30;;;8.52;;
49123;SDS011;48506;48.202;16.274;2023-06-19T03:12:56;14.43;;;9.80;;
49123;SDS011;48506;48.202;16.274;2023-06-19T03:15:24;13.30;;;9.40;;
49123;SDS011;48506;48.202;16.274;2023-06-19T03:17:51;9.55;;;7.63;;
49123;SDS011;48506;48.202;16.274;2023-06-19T03:20:18;11.07;;;8.35;;
49123;SDS011;48506;48.202;16.274;2023-06-19T03:22:45;10.60;;;8.95;;
49123;SDS011;48506;48.202;16.274;2023-06-19T03:25:11;9.65;;;8.45;;
49123;SDS011;48506;48.202;16.274;2023-06-19T03:27:37;12.02;;;9.65;;
49123;SDS011;48506;48.202;16.274;2023-06-19T03:30:04;13.65;;;10.07;;
49123;SDS011;48506;48.202;16.274;2023-06-19T03:32:34;10.88;;;8.20;;
49123;SDS011;48506;48.202;16.274;2023-06-19T03:35:01;9.82;;;8.35;;
49123;SDS011;48506;48.202;16.274;2023-06-19T03:37:27;11.68;;;8.95;;
49123;SDS011;48506;48.202;16.274;2023-06-19T03:39:53;12.23;;;9.38;;
49123;SDS011;48506;48.202;16.274;2023-06-19T03:42:19;11.55;;;8.98;;
49123;SDS011;48506;48.202;16.274;2023-06-19T03:44:44;10.90;;;9.55;;
49123;SDS011;48506;48.202;16.274;2023-06-19T03:47:10;12.27;;;8.98;;
49123;SDS011;48506;48.202;16.274;2023-06-19T03:49:36;12.77;;;9.43;;
49123;SDS011;48506;48.202;16.274;2023-06-19T03:52:02;13.18;;;9.27;;
49123;SDS011;48506;48.202;16.274;2023-06-19T03:54:28;13.52;;;9.20;;
49123;SDS011;48506;48.202;16.274;2023-06-19T03:56:54;10.60;;;8.90;;
49123;SDS011;48506;48.202;16.274;2023-06-19T03:59:20;10.95;;;9.05;;
49123;SDS011;48506;48.202;16.274;2023-06-19T04:01:46;10.35;;;8.48;;
49123;SDS011;48506;48.202;16.274;2023-06-19T04:04:12;13.25;;;8.77;;
49123;SDS011;48506;48.202;16.274;2023-06-19T04:06:38;13.27;;;9.15;;
49123;SDS011;48506;48.202;16.274;2023-06-19T04:09:04;11.63;;;9.93;;
49123;SDS011;48506;48.202;16.274;2023-06-19T04:11:30;13.15;;;9.38;;
49123;SDS011;48506;48.202;16.274;2023-06-19T04:13:55;12.90;;;9.30;;
49123;SDS011;48506;48.202;16.274;2023-06-19T04:16:21;11.40;;;8.80;;
49123;SDS011;48506;48.202;16.274;2023-06-19T04:18:47;10.30;;;8.32;;
49123;SDS011;48506;48.202;16.274;2023-06-19T04:21:13;10.23;;;8.93;;
49123;SDS011;48506;48.202;16.274;2023-06-19T04:23:39;12.20;;;8.80;;
49123;SDS011;48506;48.202;16.274;2023-06-19T04:26:05;10.55;;;9.05;;
49123;SDS011;48506;48.202;16.274;2023-06-19T04:28:31;13.25;;;9.82;;
49123;SDS011;48506;48.202;16.274;2023-06-19T04:30:57;10.95;;;8.45;;
49123;SDS011;48506;48.202;16.274;2023-06-19T04:33:28;12.30;;;8.65;;
49123;SDS011;48506;48.202;16.274;2023-06-19T04:35:55;10.27;;;8.83;;
49123;SDS011;48506;48.202;16.274;2023-06-19T04:38:21;11.52;;;7.85;;
49123;SDS011;48506;48.202;16.274;2023-06-19T04:40:50;9.63;;;8.30;;
49123;SDS011;48506;48.202;16.274;2023-06-19T04:43:17;9.45;;;7.88;;
49123;SDS011;48506;48.202;16.274;2023-06-19T04:45:43;12.68;;;8.52;;
49123;SDS011;48506;48.202;16.274;2023-06-19T04:48:09;12.77;;;8.98;;
49123;SDS011;48506;48.202;16.274;2023-06-19T04:50:36;14.80;;;8.52;;
49123;SDS011;48506;48.202;16.274;2023-06-19T04:53:03;11.93;;;9.18;;
49123;SDS011;48506;48.202;16.274;2023-06-19T04:55:29;13.07;;;7.63;;
49123;SDS011;48506;48.202;16.274;2023-06-19T04:57:56;10.15;;;7.55;;
49123;SDS011;48506;48.202;16.274;2023-06-19T05:00:22;9.52;;;7.60;;
49123;SDS011;48506;48.202;16.274;2023-06-19T05:02:49;9.85;;;8.18;;
49123;SDS011;48506;48.202;16.274;2023-06-19T05:05:15;9.30;;;7.80;;
49123;SDS011;48506;48.202;16.274;2023-06-19T05:07:42;10.05;;;7.68;;
49123;SDS011;48506;48.202;16.274;2023-06-19T05:10:08;10.63;;;8.45;;
49123;SDS011;48506;48.202;16.274;2023-06-19T05:12:34;12.18;;;7.32;;
49123;SDS011;48506;48.202;16.274;2023-06-19T05:15:01;12.68;;;8.35;;
49123;SDS011;48506;48.202;16.274;2023-06-19T05:17:27;9.27;;;7.80;;
49123;SDS011;48506;48.202;16.274;2023-06-19T05:19:53;11.30;;;7.82;;
49123;SDS011;48506;48.202;16.274;2023-06-19T05:22:19;9.40;;;8.38;;
49123;SDS011;48506;48.202;16.274;2023-06-19T05:24:47;12.43;;;8.98;;
49123;SDS011;48506;48.202;16.274;2023-06-19T05:27:13;14.82;;;9.13;;
49123;SDS011;48506;48.202;16.274;2023-06-19T05:29:38;10.82;;;7.63;;
49123;SDS011;48506;48.202;16.274;2023-06-19T05:32:05;13.45;;;7.88;;
49123;SDS011;48506;48.202;16.274;2023-06-19T05:34:31;9.57;;;7.78;;
49123;SDS011;48506;48.202;16.274;2023-06-19T05:36:58;10.77;;;8.77;;
49123;SDS011;48506;48.202;16.274;2023-06-19T05:39:28;10.35;;;9.25;;
49123;SDS011;48506;48.202;16.274;2023-06-19T05:41:54;10.48;;;8.18;;
49123;SDS011;48506;48.202;16.274;2023-06-19T05:44:21;9.63;;;8.63;;
49123;SDS011;48506;48.202;16.274;2023-06-19T05:46:47;12.55;;;8.65;;
49123;SDS011;48506;48.202;16.274;2023-06-19T05:49:13;13.10;;;9.00;;
49123;SDS011;48506;48.202;16.274;2023-06-19T05:51:39;9.02;;;8.13;;
49123;SDS011;48506;48.202;16.274;2023-06-19T05:54:04;11.35;;;10.05;;
49123;SDS011;48506;48.202;16.274;2023-06-19T05:56:31;13.98;;;9.90;;
49123;SDS011;48506;48.202;16.274;2023-06-19T05:59:01;11.18;;;9.23;;
49123;SDS011;48506;48.202;16.274;2023-06-19T06:01:28;12.55;;;10.32;;
49123;SDS011;48506;48.202;16.274;2023-06-19T06:03:55;14.90;;;10.25;;
49123;SDS011;48506;48.202;16.274;2023-06-19T06:06:24;13.52;;;9.82;;
49123;SDS011;48506;48.202;16.274;2023-06-19T06:08:51;16.25;;;10.98;;
49123;SDS011;48506;48.202;16.274;2023-06-19T06:11:17;14.43;;;10.73;;
49123;SDS011;48506;48.202;16.274;2023-06-19T06:13:43;12.63;;;10.07;;
49123;SDS011;48506;48.202;16.274;2023-06-19T06:16:09;16.42;;;12.30;;
49123;SDS011;48506;48.202;16.274;2023-06-19T06:18:35;15.05;;;11.82;;
49123;SDS011;48506;48.202;16.274;2023-06-19T06:21:01;22.55;;;11.02;;
49123;SDS011;48506;48.202;16.274;2023-06-19T06:23:27;12.70;;;10.18;;
49123;SDS011;48506;48.202;16.274;2023-06-19T06:25:53;15.80;;;11.45;;
49123;SDS011;48506;48.202;16.274;2023-06-19T06:28:26;14.73;;;10.32;;
49123;SDS011;48506;48.202;16.274;2023-06-19T06:30:53;15.43;;;9.60;;
49123;SDS011;48506;48.202;16.274;2023-06-19T06:33:20;15.73;;;10.60;;
49123;SDS011;48506;48.202;16.274;2023-06-19T06:35:46;15.60;;;11.00;;
49123;SDS011;48506;48.202;16.274;2023-06-19T06:38:12;17.25;;;11.13;;
49123;SDS011;48506;48.202;16.274;2023-06-19T06:40:38;11.50;;;10.05;;
49123;SDS011;48506;48.202;16.274;2023-06-19T06:43:04;16.45;;;10.75;;
49123;SDS011;48506;48.202;16.274;2023-06-19T06:45:31;13.00;;;10.35;;
49123;SDS011;48506;48.202;16.274;2023-06-19T06:47:57;15.27;;;10.00;;
49123;SDS011;48506;48.202;16.274;2023-06-19T06:50:23;9.80;;;8.80;;
49123;SDS011;48506;48.202;16.274;2023-06-19T06:52:49;15.40;;;10.75;;
49123;SDS011;48506;48.202;16.274;2023-06-19T06:55:15;14.00;;;10.63;;
49123;SDS011;48506;48.202;16.274;2023-06-19T06:57:41;15.40;;;10.88;;
49123;SDS011;48506;48.202;16.274;2023-06-19T07:00:07;16.00;;;9.52;;
49123;SDS011;48506;48.202;16.274;2023-06-19T07:02:37;12.83;;;9.43;;
49123;SDS011;48506;48.202;16.274;2023-06-19T07:05:06;18.33;;;11.02;;
49123;SDS011;48506;48.202;16.274;2023-06-19T07:07:34;14.17;;;10.63;;
49123;SDS011;48506;48.202;16.274;2023-06-19T07:10:00;17.98;;;10.80;;
49123;SDS011;48506;48.202;16.274;2023-06-19T07:12:25;14.20;;;10.93;;
49123;SDS011;48506;48.202;16.274;2023-06-19T07:14:54;13.77;;;10.65;;
49123;SDS011;48506;48.202;16.274;2023-06-19T07:17:20;13.02;;;9.52;;
49123;SDS011;48506;48.202;16.274;2023-06-19T07:19:46;21.20;;;11.23;;
49123;SDS011;48506;48.202;16.274;2023-06-19T07:22:13;14.13;;;9.18;;
49123;SDS011;48506;48.202;16.274;2023-06-19T07:24:41;15.13;;;9.75;;
49123;SDS011;48506;48.202;16.274;2023-06-19T07:27:09;16.17;;;9.75;;
49123;SDS011;48506;48.202;16.274;2023-06-19T07:29:35;11.10;;;9.40;;
49123;SDS011;48506;48.202;16.274;2023-06-19T07:32:00;13.18;;;8.88;;
49123;SDS011;48506;48.202;16.274;2023-06-19T07:34:28;9.70;;;7.63;;
49123;SDS011;48506;48.202;16.274;2023-06-19T07:36:53;13.73;;;9.63;;
49123;SDS011;48506;48.202;16.274;2023-06-19T07:39:20;12.63;;;7.50;;
49123;SDS011;48506;48.202;16.274;2023-06-19T07:41:47;11.13;;;8.52;;
49123;SDS011;48506;48.202;16.274;2023-06-19T07:44:13;22.88;;;9.77;;
49123;SDS011;48506;48.202;16.274;2023-06-19T07:46:39;12.70;;;9.25;;
49123;SDS011;48506;48.202;16.274;2023-06-19T07:49:05;9.95;;;8.18;;
49123;SDS011;48506;48.202;16.274;2023-06-19T07:51:31;11.18;;;8.10;;
49123;SDS011;48506;48.202;16.274;2023-06-19T07:53:58;8.27;;;7.07;;
49123;SDS011;48506;48.202;16.274;2023-06-19T07:56:24;12.57;;;7.60;;
49123;SDS011;48506;48.202;16.274;2023-06-19T07:58:50;10.40;;;7.95;;
49123;SDS011;48506;48.202;16.274;2023-06-19T08:01:18;8.95;;;7.30;;
49123;SDS011;48506;48.202;16.274;2023-06-19T08:03:44;11.90;;;7.75;;
49123;SDS011;48506;48.202;16.274;2023-06-19T08:06:10;12.23;;;8.50;;
49123;SDS011;48506;48.202;16.274;2023-06-19T08:08:36;8.18;;;7.35;;
49123;SDS011;48506;48.202;16.274;2023-06-19T08:11:02;11.80;;;8.00;;
49123;SDS011;48506;48.202;16.274;2023-06-19T08:13:28;9.32;;;8.35;;
49123;SDS011;48506;48.202;16.274;2023-06-19T08:15:54;8.93;;;8.02;;
49123;SDS011;48506;48.202;16.274;2023-06-19T08:18:20;10.63;;;7.22;;
49123;SDS011;48506;48.202;16.274;2023-06-19T08:20:46;12.00;;;8.73;;
49123;SDS011;48506;48.202;16.274;2023-06-19T08:23:12;10.05;;;8.40;;
49123;SDS011;48506;48.202;16.274;2023-06-19T08:25:38;11.90;;;8.13;;
49123;SDS011;48506;48.202;16.274;2023-06-19T08:28:04;10.68;;;7.97;;
49123;SDS011;48506;48.202;16.274;2023-06-19T08:30:30;7.38;;;6.60;;
49123;SDS011;48506;48.202;16.274;2023-06-19T08:32:56;8.68;;;7.75;;
49123;SDS011;48506;48.202;16.274;2023-06-19T08:35:22;10.23;;;7.85;;
49123;SDS011;48506;48.202;16.274;2023-06-19T08:37:48;12.35;;;7.47;;
49123;SDS011;48506;48.202;16.274;2023-06-19T08:40:15;12.63;;;7.57;;
49123;SDS011;48506;48.202;16.274;2023-06-19T08:42:41;10.07;;;8.20;;
49123;SDS011;48506;48.202;16.274;2023-06-19T08:45:08;9.35;;;7.82;;
49123;SDS011;48506;48.202;16.274;2023-06-19T08:47:34;9.18;;;8.20;;
49123;SDS011;48506;48.202;16.274;2023-06-19T08:50:01;10.40;;;7.80;;
49123;SDS011;48506;48.202;16.274;2023-06-19T08:52:28;12.15;;;7.75;;
49123;SDS011;48506;48.202;16.274;2023-06-19T08:54:54;10.73;;;8.73;;
49123;SDS011;48506;48.202;16.274;2023-06-19T08:57:20;9.05;;;8.15;;
49123;SDS011;48506;48.202;16.274;2023-06-19T08:59:49;9.93;;;8.27;;
49123;SDS011;48506;48.202;16.274;2023-06-19T09:02:16;17.67;;;8.73;;
49123;SDS011;48506;48.202;16.274;2023-06-19T09:04:42;11.93;;;8.48;;
49123;SDS011;48506;48.202;16.274;2023-06-19T09:07:12;11.90;;;8.07;;
49123;SDS011;48506;48.202;16.274;2023-06-19T09:09:43;10.57;;;8.20;;
49123;SDS011;48506;48.202;16.274;2023-06-19T09:12:14;12.07;;;9.25;;
49123;SDS011;48506;48.202;16.274;2023-06-19T09:14:41;9.52;;;8.48;;
49123;SDS011;48506;48.202;16.274;2023-06-19T09:17:13;13.85;;;8.70;;
49123;SDS011;48506;48.202;16.274;2023-06-19T09:19:48;9.88;;;8.88;;
49123;SDS011;48506;48.202;16.274;2023-06-19T09:22:22;12.80;;;8.85;;
49123;SDS011;48506;48.202;16.274;2023-06-19T09:24:50;11.30;;;9.82;;
49123;SDS011;48506;48.202;16.274;2023-06-19T09:27:17;15.80;;;11.40;;
49123;SDS011;48506;48.202;16.274;2023-06-19T09:29:45;16.65;;;10.23;;
49123;SDS011;48506;48.202;16.274;2023-06-19T09:32:23;11.38;;;9.23;;
49123;SDS011;48506;48.202;16.274;2023-06-19T09:34:51;14.23;;;10.35;;
49123;SDS011;48506;48.202;16.274;2023-06-19T09:37:23;15.73;;;9.67;;
49123;SDS011;48506;48.202;16.274;2023-06-19T09:39:54;15.35;;;10.57;;
49123;SDS011;48506;48.202;16.274;2023-06-19T09:42:32;12.57;;;9.38;;
49123;SDS011;48506;48.202;16.274;2023-06-19T09:45:04;11.07;;;9.40;;
49123;SDS011;48506;48.202;16.274;2023-06-19T09:47:52;14.55;;;11.38;;
49123;SDS011;48506;48.202;16.274;2023-06-19T09:50:23;11.48;;;9.30;;
49123;SDS011;48506;48.202;16.274;2023-06-19T09:52:52;14.73;;;9.07;;
49123;SDS011;48506;48.202;16.274;2023-06-19T09:55:21;12.15;;;8.50;;
49123;SDS011;48506;48.202;16.274;2023-06-19T09:57:49;10.48;;;9.45;;
49123;SDS011;48506;48.202;16.274;2023-06-19T10:00:17;15.05;;;10.30;;
49123;SDS011;48506;48.202;16.274;2023-06-19T10:02:48;10.88;;;8.82;;
49123;SDS011;48506;48.202;16.274;2023-06-19T10:05:14;11.32;;;9.18;;
49123;SDS011;48506;48.202;16.274;2023-06-19T10:07:42;14.63;;;9.10;;
49123;SDS011;48506;48.202;16.274;2023-06-19T10:13:13;10.85;;;9.15;;
49123;SDS011;48506;48.202;16.274;2023-06-19T10:15:41;14.23;;;10.55;;
49123;SDS011;48506;48.202;16.274;2023-06-19T10:18:12;11.05;;;9.00;;
49123;SDS011;48506;48.202;16.274;2023-06-19T10:20:42;9.68;;;8.55;;
49123;SDS011;48506;48.202;16.274;2023-06-19T10:23:12;9.50;;;7.70;;
49123;SDS011;48506;48.202;16.274;2023-06-19T10:25:44;9.60;;;8.38;;
49123;SDS011;48506;48.202;16.274;2023-06-19T10:28:21;11.13;;;7.72;;
49123;SDS011;48506;48.202;16.274;2023-06-19T10:33:27;15.32;;;9.05;;
49123;SDS011;48506;48.202;16.274;2023-06-19T10:35:56;10.82;;;8.18;;
49123;SDS011;48506;48.202;16.274;2023-06-19T10:38:22;10.45;;;8.45;;
49123;SDS011;48506;48.202;16.274;2023-06-19T10:40:49;10.10;;;8.30;;
49123;SDS011;48506;48.202;16.274;2023-06-19T10:43:21;9.43;;;8.50;;
49123;SDS011;48506;48.202;16.274;2023-06-19T10:45:50;9.40;;;7.22;;
49123;SDS011;48506;48.202;16.274;2023-06-19T10:48:20;11.15;;;7.95;;
49123;SDS011;48506;48.202;16.274;2023-06-19T10:50:48;10.70;;;7.20;;
49123;SDS011;48506;48.202;16.274;2023-06-19T10:53:28;14.02;;;8.02;;
49123;SDS011;48506;48.202;16.274;2023-06-19T10:55:56;9.02;;;8.02;;
49123;SDS011;48506;48.202;16.274;2023-06-19T10:58:24;10.60;;;8.38;;
49123;SDS011;48506;48.202;16.274;2023-06-19T11:00:51;9.27;;;7.57;;
49123;SDS011;48506;48.202;16.274;2023-06-19T11:03:18;11.77;;;8.07;;
49123;SDS011;48506;48.202;16.274;2023-06-19T11:05:45;10.48;;;8.45;;
49123;SDS011;48506;48.202;16.274;2023-06-19T11:08:16;13.52;;;7.45;;
49123;SDS011;48506;48.202;16.274;2023-06-19T11:10:43;12.80;;;8.07;;
49123;SDS011;48506;48.202;16.274;2023-06-19T11:13:13;8.95;;;7.75;;
49123;SDS011;48506;48.202;16.274;2023-06-19T11:15:42;15.55;;;7.75;;
49123;SDS011;48506;48.202;16.274;2023-06-19T11:18:09;8.82;;;7.57;;
49123;SDS011;48506;48.202;16.274;2023-06-19T11:20:48;12.95;;;8.20;;
49123;SDS011;48506;48.202;16.274;2023-06-19T11:23:25;10.02;;;7.20;;
49123;SDS011;48506;48.202;16.274;2023-06-19T11:25:54;11.23;;;7.47;;
49123;SDS011;48506;48.202;16.274;2023-06-19T11:28:27;10.75;;;6.85;;
49123;SDS011;48506;48.202;16.274;2023-06-19T11:30:58;9.77;;;6.75;;
49123;SDS011;48506;48.202;16.274;2023-06-19T11:33:25;7.68;;;6.63;;
49123;SDS011;48506;48.202;16.274;2023-06-19T11:35:51;8.35;;;6.93;;
49123;SDS011;48506;48.202;16.274;2023-06-19T11:38:21;8.07;;;7.07;;
49123;SDS011;48506;48.202;16.274;2023-06-19T11:40:48;10.35;;;7.22;;
49123;SDS011;48506;48.202;16.274;2023-06-19T11:43:27;10.52;;;7.78;;
49123;SDS011;48506;48.202;16.274;2023-06-19T11:46:05;10.05;;;6.65;;
49123;SDS011;48506;48.202;16.274;2023-06-19T11:48:36;7.80;;;7.05;;
49123;SDS011;48506;48.202;16.274;2023-06-19T11:51:03;7.40;;;6.60;;
49123;SDS011;48506;48.202;16.274;2023-06-19T11:53:29;11.18;;;6.18;;
49123;SDS011;48506;48.202;16.274;2023-06-19T11:55:59;8.07;;;6.88;;
49123;SDS011;48506;48.202;16.274;2023-06-19T11:58:25;7.13;;;6.43;;
49123;SDS011;48506;48.202;16.274;2023-06-19T12:00:52;7.63;;;6.93;;
49123;SDS011;48506;48.202;16.274;2023-06-19T12:03:19;6.97;;;6.28;;
49123;SDS011;48506;48.202;16.274;2023-06-19T12:05:45;7.03;;;6.30;;
49123;SDS011;48506;48.202;16.274;2023-06-19T12:08:11;7.32;;;6.63;;
49123;SDS011;48506;48.202;16.274;2023-06-19T12:10:36;7.55;;;6.70;;
49123;SDS011;48506;48.202;16.274;2023-06-19T12:13:02;7.63;;;6.85;;
49123;SDS011;48506;48.202;16.274;2023-06-19T12:15:28;10.98;;;6.25;;
49123;SDS011;48506;48.202;16.274;2023-06-19T12:17:54;10.25;;;6.10;;
49123;SDS011;48506;48.202;16.274;2023-06-19T12:20:24;14.00;;;6.47;;
49123;SDS011;48506;48.202;16.274;2023-06-19T12:22:50;10.20;;;6.55;;
49123;SDS011;48506;48.202;16.274;2023-06-19T12:25:16;7.38;;;6.68;;
49123;SDS011;48506;48.202;16.274;2023-06-19T12:27:43;6.78;;;6.07;;
49123;SDS011;48506;48.202;16.274;2023-06-19T12:30:10;9.35;;;6.72;;
49123;SDS011;48506;48.202;16.274;2023-06-19T12:32:37;8.43;;;6.40;;
49123;SDS011;48506;48.202;16.274;2023-06-19T12:35:03;7.47;;;6.07;;
49123;SDS011;48506;48.202;16.274;2023-06-19T12:37:29;9.25;;;6.10;;
49123;SDS011;48506;48.202;16.274;2023-06-19T12:39:55;7.32;;;6.53;;
49123;SDS011;48506;48.202;16.274;2023-06-19T12:42:21;7.47;;;6.78;;
49123;SDS011;48506;48.202;16.274;2023-06-19T12:44:47;7.22;;;6.53;;
49123;SDS011;48506;48.202;16.274;2023-06-19T12:47:14;9.77;;;6.40;;
49123;SDS011;48506;48.202;16.274;2023-06-19T12:49:43;6.80;;;5.97;;
49123;SDS011;48506;48.202;16.274;2023-06-19T12:52:09;8.32;;;6.20;;
49123;SDS011;48506;48.202;16.274;2023-06-19T12:54:36;6.90;;;6.20;;
49123;SDS011;48506;48.202;16.274;2023-06-19T12:57:02;10.90;;;6.65;;
49123;SDS011;48506;48.202;16.274;2023-06-19T12:59:28;12.70;;;6.50;;
49123;SDS011;48506;48.202;16.274;2023-06-19T13:01:56;10.02;;;6.85;;
49123;SDS011;48506;48.202;16.274;2023-06-19T13:04:22;9.32;;;6.10;;
49123;SDS011;48506;48.202;16.274;2023-06-19T13:06:48;9.73;;;5.95;;
49123;SDS011;48506;48.202;16.274;2023-06-19T13:09:14;8.95;;;6.50;;
49123;SDS011;48506;48.202;16.274;2023-06-19T13:11:40;7.15;;;6.45;;
49123;SDS011;48506;48.202;16.274;2023-06-19T13:14:08;9.95;;;6.40;;
49123;SDS011;48506;48.202;16.274;2023-06-19T13:16:34;8.65;;;6.82;;
49123;SDS011;48506;48.202;16.274;2023-06-19T13:18:59;6.85;;;6.15;;
49123;SDS011;48506;48.202;16.274;2023-06-19T13:21:25;7.95;;;6.57;;
49123;SDS011;48506;48.202;16.274;2023-06-19T13:23:51;7.57;;;6.78;;
49123;SDS011;48506;48.202;16.274;2023-06-19T13:26:17;6.68;;;6.00;;
49123;SDS011;48506;48.202;16.274;2023-06-19T13:28:43;7.47;;;6.60;;
49123;SDS011;48506;48.202;16.274;2023-06-19T13:31:09;9.73;;;7.53;;
49123;SDS011;48506;48.202;16.274;2023-06-19T13:33:35;9.10;;;6.72;;
49123;SDS011;48506;48.202;16.274;2023-06-19T13:36:01;8.75;;;6.22;;
49123;SDS011;48506;48.202;16.274;2023-06-19T13:38:27;9.15;;;7.18;;
49123;SDS011;48506;48.202;16.274;2023-06-19T13:40:53;8.38;;;6.82;;
49123;SDS011;48506;48.202;16.274;2023-06-19T13:43:19;7.28;;;6.13;;
49123;SDS011;48506;48.202;16.274;2023-06-19T13:45:49;8.73;;;6.85;;
49123;SDS011;48506;48.202;16.274;2023-06-19T13:48:17;8.95;;;6.38;;
49123;SDS011;48506;48.202;16.274;2023-06-19T13:50:43;9.63;;;7.00;;
49123;SDS011;48506;48.202;16.274;2023-06-19T13:53:09;7.63;;;5.78;;
49123;SDS011;48506;48.202;16.274;2023-06-19T13:55:35;7.07;;;6.03;;
49123;SDS011;48506;48.202;16.274;2023-06-19T13:58:01;8.65;;;6.30;;
49123;SDS011;48506;48.202;16.274;2023-06-19T14:00:27;13.98;;;6.95;;
49123;SDS011;48506;48.202;16.274;2023-06-19T14:02:53;7.63;;;6.43;;
49123;SDS011;48506;48.202;16.274;2023-06-19T14:05:20;9.57;;;6.43;;
49123;SDS011;48506;48.202;16.274;2023-06-19T14:07:46;6.50;;;5.70;;
49123;SDS011;48506;48.202;16.274;2023-06-19T14:10:12;7.72;;;6.65;;
49123;SDS011;48506;48.202;16.274;2023-06-19T14:12:38;8.77;;;5.88;;
49123;SDS011;48506;48.202;16.274;2023-06-19T14:15:05;8.10;;;6.72;;
49123;SDS011;48506;48.202;16.274;2023-06-19T14:17:33;9.35;;;7.05;;
49123;SDS011;48506;48.202;16.274;2023-06-19T14:19:59;9.27;;;6.38;;
49123;SDS011;48506;48.202;16.274;2023-06-19T14:22:25;6.90;;;6.20;;
49123;SDS011;48506;48.202;16.274;2023-06-19T14:24:52;7.20;;;6.35;;
49123;SDS011;48506;48.202;16.274;2023-06-19T14:27:26;7.25;;;6.47;;
49123;SDS011;48506;48.202;16.274;2023-06-19T14:29:52;7.07;;;6.38;;
49123;SDS011;48506;48.202;16.274;2023-06-19T14:32:20;6.30;;;5.68;;
49123;SDS011;48506;48.202;16.274;2023-06-19T14:34:47;7.43;;;6.63;;
49123;SDS011;48506;48.202;16.274;2023-06-19T14:37:13;8.20;;;6.93;;
49123;SDS011;48506;48.202;16.274;2023-06-19T14:39:39;9.75;;;6.25;;
49123;SDS011;48506;48.202;16.274;2023-06-19T14:42:05;7.80;;;6.10;;
49123;SDS011;48506;48.202;16.274;2023-06-19T14:44:31;7.55;;;6.03;;
49123;SDS011;48506;48.202;16.274;2023-06-19T14:46:58;9.38;;;6.88;;
49123;SDS011;48506;48.202;16.274;2023-06-19T14:49:25;7.50;;;6.70;;
49123;SDS011;48506;48.202;16.274;2023-06-19T14:51:51;13.10;;;6.55;;
49123;SDS011;48506;48.202;16.274;2023-06-19T14:54:16;10.65;;;6.50;;
49123;SDS011;48506;48.202;16.274;2023-06-19T14:56:45;8.52;;;5.97;;
49123;SDS011;48506;48.202;16.274;2023-06-19T14:59:15;10.75;;;6.35;;
49123;SDS011;48506;48.202;16.274;2023-06-19T15:01:42;11.93;;;6.55;;
49123;SDS011;48506;48.202;16.274;2023-06-19T15:04:10;7.15;;;5.88;;
49123;SDS011;48506;48.202;16.274;2023-06-19T15:06:36;7.57;;;6.68;;